Friday, April 20, 2018, 6:35 AM EDT
Back to Local

KBUF, Greater Buffalo International Airport

Location: Buffalo, NY, United States Lat: 42.933
Local Time: 6:35 AM EDT (10:35 GMT) Lon: -78.733
Time Zone: US/Eastern Elev: 725 ft

Show me the last for .
Show Decoded

2018-04-20 05:54 METAR KBUF 200954Z 32008KT 10SM FEW035 M01/M07 A3026 RMK AO2 SLP257 T10111067 =
2018-04-20 04:54 METAR KBUF 200854Z 31006KT 10SM CLR M01/M06 A3024 RMK AO2 SLP250 T10111061 51018
                 =
2018-04-20 03:54 METAR KBUF 200754Z 32005KT 10SM SCT036 M01/M06 A3023 RMK AO2 SLP245 T10111056 =
2018-04-20 02:54 METAR KBUF 200654Z 33008KT 10SM SCT046 00/M06 A3021 RMK AO2 SLP238 T00001056 =
2018-04-20 01:54 METAR KBUF 200554Z 33011KT 10SM BKN048 01/M04 A3019 RMK AO2 SLP231 60000
                 T00111044 10017 20011 53006 =
2018-04-20 00:54 METAR KBUF 200454Z 32007KT 9SM FEW037 OVC048 02/M04 A3019 RMK AO2 SNE50 SLP229
                 P0000 T00171039 400330000 =
2018-04-19 23:54 METAR KBUF 200354Z 28008KT 9SM -SN BKN042 01/M03 A3018 RMK AO2 SLP227 P0000
                 T00111033 =
2018-04-19 22:54 METAR KBUF 200254Z 32014G22KT 8SM -SN BKN038 02/M05 A3017 RMK AO2 SLP226 P0000
                 60000 T00171050 51021 =
2018-04-19 21:54 METAR KBUF 200154Z 31011G17KT 9SM -SN OVC038 02/M05 A3016 RMK AO2 SLP222 SNB35
                 P0000 T00171050 =
2018-04-19 20:54 METAR KBUF 200054Z 31009KT 10SM FEW035 FEW050 OVC060 02/M05 A3014 RMK AO2 SLP214
                 T00171050 =
2018-04-19 19:54 METAR KBUF 192354Z 32012G21KT 10SM FEW022 FEW035 OVC055 02/M05 A3011 RMK AO2
                 SLP205 60000 T00171050 10033 20017 53029 =
2018-04-19 18:54 METAR KBUF 192254Z 32014G24KT 9SM BKN035 OVC044 02/M04 A3008 RMK AO2 SLP195 SHSN
                 DSNT W-NW T00171039 =
2018-04-19 17:54 METAR KBUF 192154Z 31016G24KT 10SM FEW036 OVC048 02/M04 A3005 RMK AO2 SNE44
                 SLP184 P0000 T00221044 =
2018-04-19 16:54 METAR KBUF 192054Z 31016G21KT 10SM -SN BKN030 OVC044 02/M03 A3002 RMK AO2 SLP175
                 PCPN VRY LGT P0000 60000 T00221028 53019 =
2018-04-19 15:54 METAR KBUF 191954Z 29016G24KT 10SM -SN SCT028 BKN035 OVC044 03/M03 A3000 RMK AO2
                 SNB03 SLP166 PCPN VRY LGT P0000 T00331028 =
2018-04-19 14:54 METAR KBUF 191854Z 31017G22KT 10SM SCT028 BKN035 BKN042 03/M03 A2998 RMK AO2
                 SLP161 SHSN DSNT ALQDS T00281028 =
2018-04-19 13:54 METAR KBUF 191754Z 30016G22KT 10SM BKN028 BKN035 OVC042 03/M03 A2997 RMK AO2
                 SNE28 SLP156 SHSN DSNT W-NW P0000 60000 T00281028 10033 20000 51024 =
2018-04-19 12:54 METAR KBUF 191654Z 33015G18KT 10SM -SN FEW020 BKN028 BKN042 02/M03 A2994 RMK AO2
                 SLP147 PCPN VRY LGT P0000 T00221033 =
2018-04-19 11:54 METAR KBUF 191554Z 30015G21KT 10SM -SN FEW018 BKN025 BKN042 01/M03 A2993 RMK AO2
                 SLP142 P0000 T00111033 =
2018-04-19 10:54 METAR KBUF 191454Z 34014KT 10SM -SN BKN029 OVC040 01/M04 A2990 RMK AO2 SLP132
                 PCPN VRY LGT P0000 60000 T00061039 53027 =
2018-04-19 10:35 METAR KBUF 191435Z 35013KT 10SM -SN SCT025 BKN032 OVC040 01/M04 A2989 RMK AO2
                 PCPN VRY LGT P0000 T00061044 =
2018-04-19 09:54 METAR KBUF 191354Z 33012G17KT 10SM -SN BKN025 BKN032 OVC040 01/M03 A2986 RMK AO2
                 SLP121 P0000 T00061033 =
2018-04-19 09:39 METAR KBUF 191339Z 35009KT 10SM -SN BKN025 BKN040 OVC050 01/M03 A2986 RMK AO2
                 P0000 T00061028 =
2018-04-19 08:54 METAR KBUF 191254Z COR 34011KT 10SM -SN SCT025 OVC035 01/M03 A2984 RMK AO2 SNB02
                 SLP113 P0000 T00061033 =
2018-04-19 08:52 METAR KBUF 191252Z 35013KT 10SM -SN SCT025 OVC035 01/M03 A2984 RMK AO2 SNB02
                 P0000 =
2018-04-19 07:54 METAR KBUF 191154Z 34009KT 10SM OVC025 00/M03 A2981 RMK AO2 SLP104 4/001 70004
                 T00001033 10006 20000 53015 =
2018-04-19 06:54 METAR KBUF 191054Z 34012KT 10SM OVC017 01/M02 A2979 RMK AO2 SLP094 T00061017 =

Support USWX by starting your Amazon purchase here.